Los Barrios, Spain
Current Conditions -  °F | °C
As of 11:00 AM on Saturday 29 Nov 2014 (Local Time) from LEAG Reporting Station
Clear Clear  
Wind Chill: 55°   Ceiling: Unl
Heat Index: 55°   Visibility: 6mi
Dew Point: 52°   Wind: 6mph
Humidity: 88%   Direction: 350°N
Pressure: 29.35"   Gusts: NA
Location:  36.18°N, 5.49°W
Report Text: LEAG 291000Z AUTO 35005KT 300V060 CAVOK 13/11 Q0994
Loading
Personal Weather Stations






























Interactive Weather Map New forecast layout! Learn more

10-Day Weather Forecast

Advertisements
Track Severe Weather on mobile